Time;durP1;ratioP1;P1;durP2;ratioP2;P2;SDS_P1;SDS_P2;PMS_P1;PMS_P2;Temp;Humidity;BMP_temperature;BMP_pressure;BME280_temperature;BME280_humidity;BME280_pressure;Samples;Min_cycle;Max_cycle;Signal;HPM_P1;HPM_P2
2023/01/17 00:01:54;;;;;;;7.70;2.50;;;2.70;99.90;;;;;;4995891;28;20084;-84
2023/01/17 00:09:51;;;;;;;8.63;2.50;;;4.00;99.90;;;;;;5013188;28;19922;-85
2023/01/17 00:12:19;;;;;;;8.17;2.77;;;2.80;99.90;;;;;;5013813;28;20042;-82
2023/01/17 00:14:45;;;;;;;7.53;2.40;;;2.90;99.90;;;;;;5013439;28;20041;-82
2023/01/17 00:17:10;;;;;;;7.97;2.20;;;2.90;99.90;;;;;;5012062;28;20124;-82
2023/01/17 01:35:10;;;;;;;;;;;2.50;99.90;;;;;;5035484;28;20091;-84
2023/01/17 01:37:36;;;;;;;3.43;0.80;;;2.40;99.90;;;;;;5018152;28;20018;-83
2023/01/17 01:40:02;;;;;;;3.30;0.80;;;2.40;99.90;;;;;;5017943;28;20049;-83
2023/01/17 01:42:28;;;;;;;2.53;1.07;;;2.40;99.90;;;;;;5014887;28;20489;-83
2023/01/17 01:44:54;;;;;;;4.77;0.83;;;2.30;99.90;;;;;;5035011;28;20056;-83
2023/01/17 01:47:34;;;;;;;2.67;0.67;;;2.30;99.90;;;;;;5017217;28;20045;-83
2023/01/17 01:50:05;;;;;;;4.70;0.93;;;2.40;99.90;;;;;;5035466;28;20049;-83
2023/01/17 01:52:46;;;;;;;3.20;0.77;;;2.20;99.90;;;;;;5018067;28;20049;-83
2023/01/17 01:55:21;;;;;;;4.77;1.00;;;2.10;99.90;;;;;;5017863;28;20088;-83
2023/01/17 01:57:51;;;;;;;5.80;1.10;;;2.10;99.90;;;;;;5017980;28;20436;-84
2023/01/17 02:00:29;;;;;;;4.37;1.00;;;3.40;99.90;;;;;;5017520;28;20061;-83
2023/01/17 02:02:59;;;;;;;7.20;1.30;;;2.10;99.90;;;;;;5017618;28;20058;-83
2023/01/17 02:05:26;;;;;;;3.83;0.83;;;2.90;99.90;;;;;;5035316;28;20041;-83
2023/01/17 02:08:00;;;;;;;7.50;1.17;;;2.00;99.90;;;;;;5035364;28;20037;-83
2023/01/17 02:10:26;;;;;;;3.87;0.90;;;2.00;99.90;;;;;;5016923;28;20481;-83
2023/01/17 02:12:53;;;;;;;3.17;1.07;;;2.00;99.90;;;;;;5023810;23;20045;-83
2023/01/17 02:15:25;;;;;;;4.17;1.10;;;2.00;99.90;;;;;;5034911;28;20076;-83
2023/01/17 02:18:25;;;;;;;6.17;1.10;;;2.00;99.90;;;;;;5016662;28;20046;-84
2023/01/17 02:21:08;;;;;;;7.20;1.37;;;2.00;99.90;;;;;;5020474;28;20409;-84
2023/01/17 02:24:12;;;;;;;7.07;1.23;;;2.00;99.90;;;;;;5029116;28;20050;-83
2023/01/17 02:26:53;;;;;;;5.97;1.30;;;2.00;99.90;;;;;;5035106;28;20042;-83
2023/01/17 02:29:44;;;;;;;5.43;1.27;;;2.00;99.90;;;;;;5030237;23;20061;-84
2023/01/17 02:32:32;;;;;;;5.33;1.10;;;2.10;99.90;;;;;;5014691;28;20049;-84
2023/01/17 02:35:32;;;;;;;4.97;1.17;;;2.40;99.90;;;;;;4998001;28;20049;-83
2023/01/17 02:38:25;;;;;;;5.17;1.10;;;1.90;99.90;;;;;;5015922;28;20042;-83
2023/01/17 02:41:30;;;;;;;4.93;1.00;;;1.90;99.90;;;;;;4997635;28;20096;-84
2023/01/17 02:44:09;;;;;;;3.50;1.03;;;2.10;99.90;;;;;;5014885;28;20050;-83
2023/01/17 02:46:58;;;;;;;4.13;1.17;;;1.70;99.90;;;;;;4996648;28;20053;-84
2023/01/17 02:49:32;;;;;;;6.90;1.20;;;2.20;99.90;;;;;;5015140;28;20041;-84
2023/01/17 02:52:05;;;;;;;3.17;1.00;;;3.00;99.90;;;;;;5014632;28;20050;-83
2023/01/17 02:55:11;;;;;;;6.00;1.10;;;1.60;99.90;;;;;;4978366;28;20478;-83
2023/01/17 02:57:55;;;;;;;4.00;1.10;;;1.90;99.90;;;;;;4974821;28;20069;-82
2023/01/17 03:00:37;;;;;;;7.45;1.30;;;1.30;99.90;;;;;;5011956;28;20503;-83
2023/01/17 03:03:18;;;;;;;5.73;1.30;;;1.50;99.90;;;;;;4995591;28;20053;-83
2023/01/17 03:05:50;;;;;;;6.00;1.20;;;1.50;99.90;;;;;;4996204;28;20057;-83
2023/01/17 03:08:17;;;;;;;7.53;1.33;;;1.60;99.90;;;;;;4976993;28;20053;-82
2023/01/17 03:10:44;;;;;;;7.23;1.07;;;1.60;99.90;;;;;;4994330;28;20042;-83
2023/01/17 03:13:09;;;;;;;5.43;1.10;;;1.60;99.90;;;;;;4993283;28;20070;-83
2023/01/17 03:15:37;;;;;;;6.13;1.33;;;1.60;99.90;;;;;;4976870;28;20422;-83
2023/01/17 03:18:18;;;;;;;6.50;1.30;;;1.60;99.90;;;;;;4994346;28;20046;-83
2023/01/17 03:20:43;;;;;;;7.73;1.53;;;2.30;99.90;;;;;;4976132;28;20517;-83
2023/01/17 03:23:15;;;;;;;6.77;1.40;;;2.90;99.90;;;;;;4993434;28;20078;-83
2023/01/17 03:25:40;;;;;;;9.33;1.50;;;2.90;99.90;;;;;;4993804;28;20564;-83
2023/01/17 03:28:07;;;;;;;11.50;1.63;;;1.50;99.90;;;;;;4972590;28;20096;-84
2023/01/17 03:30:32;;;;;;;8.40;1.50;;;1.60;99.90;;;;;;4976038;28;20054;-83
2023/01/17 03:33:07;;;;;;;6.93;1.53;;;2.00;99.90;;;;;;4995816;28;20421;-83
2023/01/17 03:35:32;;;;;;;6.40;1.30;;;1.40;99.90;;;;;;4994454;28;20129;-83
2023/01/17 03:37:58;;;;;;;9.23;1.50;;;2.30;99.90;;;;;;5013193;28;20124;-84
2023/01/17 03:40:33;;;;;;;6.67;1.50;;;1.60;99.90;;;;;;4995512;28;20046;-83
2023/01/17 03:43:02;;;;;;;8.90;1.70;;;3.30;99.90;;;;;;4994847;28;20042;-83
2023/01/17 03:45:30;;;;;;;7.03;1.43;;;1.50;99.90;;;;;;4993200;28;20077;-83
2023/01/17 03:48:08;;;;;;;7.87;1.37;;;0.80;99.90;;;;;;4994750;28;20038;-83
2023/01/17 03:50:43;;;;;;;7.17;1.30;;;0.80;99.90;;;;;;4995473;28;20081;-83
2023/01/17 03:53:12;;;;;;;8.67;1.40;;;3.10;99.90;;;;;;4995431;28;20103;-83
2023/01/17 03:55:37;;;;;;;8.10;1.70;;;2.80;99.90;;;;;;4994453;28;20128;-83
2023/01/17 03:58:06;;;;;;;11.20;1.70;;;1.40;99.90;;;;;;5013463;28;20077;-83
2023/01/17 04:00:32;;;;;;;4.10;1.17;;;3.10;99.90;;;;;;5012393;28;20081;-83
2023/01/17 04:02:57;;;;;;;4.73;1.23;;;1.50;99.90;;;;;;4995037;28;20080;-83
2023/01/17 04:05:23;;;;;;;7.40;1.40;;;1.70;99.90;;;;;;4995429;28;20482;-83
2023/01/17 04:07:49;;;;;;;8.43;1.37;;;1.60;99.90;;;;;;4995142;28;20040;-83
2023/01/17 04:10:15;;;;;;;4.33;1.30;;;1.50;99.90;;;;;;4994194;28;20056;-83
2023/01/17 04:12:50;;;;;;;6.03;1.20;;;1.70;99.90;;;;;;5013323;28;20108;-83
2023/01/17 04:15:16;;;;;;;7.70;1.50;;;2.10;99.90;;;;;;5012823;28;20037;-83
2023/01/17 04:17:42;;;;;;;6.57;1.50;;;2.80;99.90;;;;;;5012108;28;20588;-83
2023/01/17 04:20:17;;;;;;;6.33;1.27;;;1.40;99.90;;;;;;4995115;28;20069;-83
2023/01/17 04:22:43;;;;;;;9.50;1.53;;;1.60;99.90;;;;;;5012878;28;20046;-83
2023/01/17 04:25:17;;;;;;;9.37;1.30;;;1.40;99.90;;;;;;4994598;28;20042;-83
2023/01/17 04:27:42;;;;;;;6.10;1.10;;;2.70;99.90;;;;;;5012849;28;20100;-83
2023/01/17 04:30:17;;;;;;;7.07;1.80;;;2.70;99.90;;;;;;4993321;28;20057;-83
2023/01/17 04:32:43;;;;;;;11.90;1.50;;;1.10;99.90;;;;;;5012990;28;20050;-83
2023/01/17 04:35:09;;;;;;;8.90;1.43;;;1.50;99.90;;;;;;4998689;28;20386;-83
2023/01/17 04:37:37;;;;;;;8.00;1.43;;;1.40;99.90;;;;;;4995494;28;20058;-83
2023/01/17 04:40:04;;;;;;;11.27;1.70;;;2.20;99.90;;;;;;4995263;28;20072;-82
2023/01/17 04:42:45;;;;;;;9.23;1.70;;;1.50;99.90;;;;;;5016824;28;20042;-82
2023/01/17 04:45:19;;;;;;;8.83;1.60;;;2.20;99.90;;;;;;4993931;28;20054;-82
2023/01/17 04:48:03;;;;;;;9.57;1.60;;;1.50;99.90;;;;;;4999132;28;20050;-83
2023/01/17 04:50:41;;;;;;;8.53;1.63;;;1.10;99.90;;;;;;4998651;28;20056;-83
2023/01/17 04:53:07;;;;;;;8.63;2.03;;;2.90;99.90;;;;;;5015885;28;20049;-83
2023/01/17 04:55:47;;;;;;;7.63;2.20;;;1.10;99.90;;;;;;4998730;28;20050;-83
2023/01/17 04:58:16;;;;;;;6.90;1.40;;;1.00;99.90;;;;;;5015463;28;20548;-83
2023/01/17 05:00:42;;;;;;;9.87;1.63;;;2.50;99.90;;;;;;5013552;28;20486;-83
2023/01/17 05:03:07;;;;;;;5.70;1.30;;;1.30;99.90;;;;;;4985250;28;20112;-83
2023/01/17 05:05:33;;;;;;;9.77;1.60;;;3.30;99.90;;;;;;5014603;28;20046;-83
2023/01/17 05:08:01;;;;;;;5.87;1.30;;;0.80;99.90;;;;;;5016090;28;20389;-83
2023/01/17 05:10:27;;;;;;;6.10;1.30;;;1.70;99.90;;;;;;5015557;28;20172;-83
2023/01/17 05:12:57;;;;;;;8.50;1.60;;;0.90;99.90;;;;;;5015673;28;20521;-83
2023/01/17 05:15:25;;;;;;;6.00;1.30;;;1.00;99.90;;;;;;4998250;28;20034;-83
2023/01/17 05:17:51;;;;;;;6.50;1.40;;;0.70;99.90;;;;;;4998348;28;20490;-83
2023/01/17 05:20:32;;;;;;;5.10;1.40;;;0.70;99.90;;;;;;4997218;28;20053;-83
2023/01/17 05:22:58;;;;;;;10.03;1.43;;;0.50;99.90;;;;;;4998767;28;20137;-83
2023/01/17 05:25:34;;;;;;;7.90;1.60;;;0.60;99.90;;;;;;4998146;28;20394;-83
2023/01/17 05:28:00;;;;;;;10.47;1.87;;;0.60;99.90;;;;;;5014963;28;20049;-83
2023/01/17 05:30:46;;;;;;;6.83;1.37;;;0.50;99.90;;;;;;4998857;28;20065;-83
2023/01/17 05:33:12;;;;;;;7.20;1.50;;;1.20;99.90;;;;;;5015019;28;20494;-82
2023/01/17 05:35:38;;;;;;;6.30;1.50;;;0.50;99.90;;;;;;4997296;28;20176;-82
2023/01/17 05:38:03;;;;;;;9.20;1.93;;;0.70;99.90;;;;;;4998101;28;20053;-82
2023/01/17 05:40:31;;;;;;;9.60;1.40;;;0.60;99.90;;;;;;4996987;28;20057;-82
2023/01/17 05:42:59;;;;;;;8.63;1.40;;;0.60;99.90;;;;;;4997811;28;20038;-82
2023/01/17 05:45:27;;;;;;;10.43;1.90;;;0.50;99.90;;;;;;5017695;28;20163;-83
2023/01/17 05:47:55;;;;;;;8.87;1.57;;;0.60;99.90;;;;;;5003018;28;20385;-83
2023/01/17 05:50:26;;;;;;;8.57;1.57;;;0.50;99.90;;;;;;5017137;28;20371;-83
2023/01/17 05:52:57;;;;;;;8.30;1.33;;;0.60;99.90;;;;;;5016332;28;20049;-82
2023/01/17 05:55:24;;;;;;;6.13;1.50;;;0.50;99.90;;;;;;5017495;28;20030;-83
2023/01/17 05:57:50;;;;;;;7.53;1.23;;;0.50;99.90;;;;;;5016263;28;20112;-83
2023/01/17 06:00:16;;;;;;;11.27;1.50;;;0.40;99.90;;;;;;4999796;28;20037;-82
2023/01/17 06:02:43;;;;;;;4.67;1.33;;;0.40;99.90;;;;;;5017078;28;20490;-83
2023/01/17 06:05:10;;;;;;;7.73;1.67;;;0.40;99.90;;;;;;4999490;28;20041;-82
2023/01/17 06:07:35;;;;;;;9.07;1.37;;;0.40;99.90;;;;;;4999098;28;20134;-82
2023/01/17 06:10:01;;;;;;;8.73;1.57;;;0.30;99.90;;;;;;5016734;28;20133;-82
2023/01/17 06:12:27;;;;;;;7.40;1.50;;;0.30;99.90;;;;;;5020520;28;20053;-82
2023/01/17 06:14:52;;;;;;;11.60;2.03;;;0.30;99.90;;;;;;5018313;28;20038;-83
2023/01/17 06:17:18;;;;;;;7.27;1.57;;;0.20;99.90;;;;;;5017408;28;20041;-83
2023/01/17 06:19:44;;;;;;;10.60;1.87;;;0.20;99.90;;;;;;5001345;28;20041;-82
2023/01/17 06:22:09;;;;;;;11.43;1.53;;;0.20;99.90;;;;;;4999824;28;20096;-83
2023/01/17 06:24:35;;;;;;;7.70;1.70;;;0.10;99.90;;;;;;5017541;28;20046;-82
2023/01/17 06:27:01;;;;;;;8.10;1.63;;;0.10;99.90;;;;;;5016851;28;20406;-82
2023/01/17 06:29:35;;;;;;;10.43;1.70;;;0.10;99.90;;;;;;4997616;28;20058;-83
2023/01/17 06:32:01;;;;;;;9.30;1.67;;;1.10;99.90;;;;;;5016631;28;20056;-83
2023/01/17 06:34:27;;;;;;;6.87;1.90;;;-0.60;99.90;;;;;;4998583;28;20053;-84
2023/01/17 06:36:53;;;;;;;9.03;1.50;;;-0.20;99.90;;;;;;4998161;28;20091;-83
2023/01/17 06:39:19;;;;;;;11.37;1.67;;;0.40;99.90;;;;;;5015331;28;20050;-83
2023/01/17 06:41:44;;;;;;;8.53;1.77;;;0.00;99.90;;;;;;4997745;28;20049;-83
2023/01/17 06:44:10;;;;;;;11.47;1.87;;;0.00;99.90;;;;;;4999162;28;20046;-84
2023/01/17 06:46:36;;;;;;;12.30;1.90;;;0.10;99.90;;;;;;4998134;28;20064;-84
2023/01/17 06:49:02;;;;;;;6.40;1.50;;;0.10;99.90;;;;;;5015399;28;20112;-83
2023/01/17 06:51:27;;;;;;;8.83;1.73;;;0.10;99.90;;;;;;5016070;28;20045;-83
2023/01/17 06:53:53;;;;;;;11.20;2.10;;;0.10;99.90;;;;;;5001257;28;20120;-84
2023/01/17 06:56:19;;;;;;;10.17;1.83;;;0.10;99.90;;;;;;4999488;28;20500;-81
2023/01/17 06:58:49;;;;;;;8.00;1.70;;;1.60;99.90;;;;;;4998035;28;20049;-85
2023/01/17 07:01:15;;;;;;;10.93;1.60;;;0.00;99.90;;;;;;5016183;28;20137;-84
2023/01/17 07:03:41;;;;;;;10.27;2.07;;;0.10;99.90;;;;;;4999349;28;20088;-83
2023/01/17 07:06:08;;;;;;;8.07;2.10;;;0.00;99.90;;;;;;4998179;28;20050;-82
2023/01/17 07:08:34;;;;;;;5.13;1.30;;;1.00;99.90;;;;;;5015955;28;20437;-82
2023/01/17 07:11:02;;;;;;;8.00;1.83;;;0.10;99.90;;;;;;5016168;28;20038;-83
2023/01/17 07:13:29;;;;;;;7.93;1.67;;;0.10;99.90;;;;;;4997549;28;20085;-82
2023/01/17 07:15:55;;;;;;;10.10;1.87;;;0.10;99.90;;;;;;5016213;28;20363;-82
2023/01/17 07:18:23;;;;;;;10.13;1.70;;;0.20;99.90;;;;;;4998049;28;20046;-82
2023/01/17 07:20:49;;;;;;;9.07;1.67;;;0.20;99.90;;;;;;5014650;28;20053;-82
2023/01/17 07:23:15;;;;;;;9.83;1.73;;;0.20;99.90;;;;;;5014824;28;20050;-82
2023/01/17 07:25:41;;;;;;;11.03;1.90;;;0.20;99.90;;;;;;5014832;28;20124;-82
2023/01/17 07:28:07;;;;;;;11.27;1.73;;;0.20;99.90;;;;;;5013517;28;20119;-83
2023/01/17 07:30:34;;;;;;;9.37;1.87;;;0.20;99.90;;;;;;4997120;28;20050;-82
2023/01/17 07:33:00;;;;;;;8.37;1.50;;;0.10;99.90;;;;;;5013881;28;20037;-82
2023/01/17 07:35:26;;;;;;;7.47;1.57;;;0.10;99.90;;;;;;4999604;28;20049;-81
2023/01/17 07:37:52;;;;;;;9.70;1.60;;;0.10;99.90;;;;;;4996313;28;20050;-82
2023/01/17 07:40:19;;;;;;;7.93;1.80;;;0.10;99.90;;;;;;4996805;28;20052;-82
2023/01/17 07:42:45;;;;;;;9.23;1.67;;;0.10;99.90;;;;;;4998337;28;20088;-82
2023/01/17 07:45:13;;;;;;;8.87;1.73;;;0.20;99.90;;;;;;4996922;28;20056;-83
2023/01/17 07:47:38;;;;;;;7.17;1.73;;;0.20;99.90;;;;;;5014227;28;20050;-82
2023/01/17 07:50:06;;;;;;;7.97;1.60;;;0.10;99.90;;;;;;4992269;28;20414;-83
2023/01/17 07:52:31;;;;;;;7.40;1.67;;;0.20;99.90;;;;;;5013922;28;20056;-82
2023/01/17 07:54:57;;;;;;;9.23;1.93;;;0.10;99.90;;;;;;4995251;28;20042;-82
2023/01/17 07:57:23;;;;;;;9.93;1.80;;;0.10;99.90;;;;;;4997808;28;20042;-82
2023/01/17 07:59:49;;;;;;;10.50;1.67;;;0.10;99.90;;;;;;4998943;28;20057;-82
2023/01/17 08:02:23;;;;;;;7.87;1.63;;;0.10;99.90;;;;;;5007931;28;20501;-82
2023/01/17 08:04:49;;;;;;;10.48;2.13;;;0.10;99.90;;;;;;4997976;28;20095;-82
2023/01/17 08:07:15;;;;;;;6.73;1.90;;;0.10;99.90;;;;;;4999224;28;20457;-82
2023/01/17 08:09:41;;;;;;;8.83;1.80;;;0.20;99.90;;;;;;5005138;28;20041;-82
2023/01/17 08:12:07;;;;;;;7.80;1.80;;;0.10;99.90;;;;;;5002601;28;20082;-83
2023/01/17 08:14:33;;;;;;;7.57;1.70;;;0.20;99.90;;;;;;4984346;28;20046;-82
2023/01/17 08:17:15;;;;;;;7.33;2.13;;;0.20;99.90;;;;;;5007530;28;20037;-82
2023/01/17 08:19:41;;;;;;;10.27;2.30;;;0.70;99.90;;;;;;4989190;28;20046;-82
2023/01/17 08:22:07;;;;;;;8.47;1.90;;;0.10;99.90;;;;;;4983297;28;20034;-83
2023/01/17 08:24:32;;;;;;;9.23;2.10;;;0.10;99.90;;;;;;4989962;28;20177;-83
2023/01/17 08:26:58;;;;;;;9.93;2.10;;;0.10;99.90;;;;;;4985304;28;20060;-83
2023/01/17 08:29:24;;;;;;;6.80;1.80;;;0.10;99.90;;;;;;4985142;28;20050;-83
2023/01/17 08:31:50;;;;;;;14.70;2.50;;;0.10;99.90;;;;;;4999913;28;20046;-83
2023/01/17 08:34:15;;;;;;;9.40;2.00;;;0.10;99.90;;;;;;4980398;28;20053;-83
2023/01/17 08:36:41;;;;;;;9.53;2.00;;;0.10;99.90;;;;;;4982312;28;20042;-83
2023/01/17 08:39:08;;;;;;;13.00;2.27;;;0.20;99.90;;;;;;4981322;28;20081;-81
2023/01/17 08:41:34;;;;;;;12.13;2.10;;;0.20;99.90;;;;;;5001622;28;20034;-82
2023/01/17 08:44:01;;;;;;;9.33;2.20;;;0.20;99.90;;;;;;4996743;28;20134;-82
2023/01/17 08:46:26;;;;;;;11.23;2.37;;;0.20;99.90;;;;;;4983498;28;20101;-81
2023/01/17 08:48:57;;;;;;;8.40;2.30;;;0.30;99.90;;;;;;4999251;28;20466;-81
2023/01/17 08:51:25;;;;;;;11.53;2.30;;;0.30;99.90;;;;;;4995602;28;20405;-81
2023/01/17 08:53:51;;;;;;;12.60;2.50;;;0.40;99.90;;;;;;4989022;28;20129;-82
2023/01/17 08:56:17;;;;;;;13.40;4.20;;;0.40;99.90;;;;;;4992534;28;20049;-82
2023/01/17 08:58:44;;;;;;;10.47;2.60;;;0.40;99.90;;;;;;4992555;28;20038;-82
2023/01/17 09:01:10;;;;;;;10.97;2.70;;;0.40;99.90;;;;;;4984249;28;20049;-82
2023/01/17 09:03:36;;;;;;;7.57;2.30;;;0.40;99.90;;;;;;4998912;28;20129;-82
2023/01/17 09:06:09;;;;;;;8.37;2.30;;;0.50;99.90;;;;;;4999806;28;20038;-82
2023/01/17 09:08:36;;;;;;;9.45;2.65;;;0.50;99.90;;;;;;4979123;28;20047;-82
2023/01/17 09:11:09;;;;;;;11.73;2.90;;;0.50;99.90;;;;;;4999479;28;20039;-82
2023/01/17 09:13:38;;;;;;;11.23;2.70;;;0.50;99.90;;;;;;5000024;28;20042;-81
2023/01/17 09:16:04;;;;;;;10.13;2.53;;;0.50;99.90;;;;;;4979127;28;20474;-82
2023/01/17 09:18:32;;;;;;;9.73;2.70;;;0.60;99.90;;;;;;4998155;28;20046;-81
2023/01/17 09:21:00;;;;;;;9.40;2.40;;;0.60;99.90;;;;;;4998324;28;20060;-81
2023/01/17 09:23:28;;;;;;;9.57;2.60;;;0.70;99.90;;;;;;5000829;28;20080;-82
2023/01/17 09:25:58;;;;;;;9.97;2.80;;;0.70;99.90;;;;;;4999439;28;20532;-82
2023/01/17 09:28:26;;;;;;;9.30;2.57;;;1.90;99.90;;;;;;4982344;28;20141;-82
2023/01/17 09:30:52;;;;;;;12.93;2.87;;;0.70;99.90;;;;;;5001865;28;20039;-81
2023/01/17 09:33:18;;;;;;;10.20;2.87;;;0.90;99.90;;;;;;4986441;28;20042;-81
2023/01/17 09:35:45;;;;;;;12.50;3.13;;;0.80;99.90;;;;;;5003248;28;20030;-82
2023/01/17 09:38:11;;;;;;;10.97;3.20;;;0.90;99.90;;;;;;4986107;28;20524;-81
2023/01/17 09:40:46;;;;;;;11.53;3.07;;;0.90;99.90;;;;;;5000874;28;20038;-81
2023/01/17 09:43:29;;;;;;;13.70;3.53;;;1.00;99.90;;;;;;4990313;28;20042;-81
2023/01/17 09:45:55;;;;;;;10.60;3.20;;;1.00;99.90;;;;;;5005032;28;20079;-81
2023/01/17 09:48:30;;;;;;;11.67;3.23;;;1.00;99.90;;;;;;4981234;28;20458;-81
2023/01/17 09:51:02;;;;;;;13.47;3.60;;;1.00;99.90;;;;;;5002761;28;20042;-79
2023/01/17 09:53:36;;;;;;;10.90;3.47;;;1.00;99.90;;;;;;5004334;28;20046;-81
2023/01/17 09:56:15;;;;;;;9.83;3.20;;;1.00;99.90;;;;;;4987498;28;20038;-81
2023/01/17 09:58:59;;;;;;;13.07;3.40;;;1.10;99.90;;;;;;4988562;28;20096;-81
2023/01/17 10:01:35;;;;;;;11.50;3.97;;;1.10;99.90;;;;;;4982442;28;20069;-81
2023/01/17 10:04:13;;;;;;;14.03;3.40;;;1.10;99.90;;;;;;4999719;28;20104;-81
2023/01/17 10:06:54;;;;;;;10.70;3.57;;;1.20;99.90;;;;;;4999188;28;20040;-81
2023/01/17 10:09:59;;;;;;;13.53;3.40;;;1.20;99.90;;;;;;4981082;28;20494;-80
2023/01/17 10:12:27;;;;;;;13.40;3.97;;;1.30;99.90;;;;;;4998732;28;20612;-81
2023/01/17 10:15:09;;;;;;;11.50;3.30;;;1.60;99.90;;;;;;5003184;28;20064;-80
2023/01/17 10:18:04;;;;;;;11.10;3.47;;;1.30;99.90;;;;;;5001655;28;20042;-81
2023/01/17 10:20:44;;;;;;;13.07;4.10;;;1.40;99.90;;;;;;4988354;28;20058;-82
2023/01/17 10:23:24;;;;;;;11.90;3.10;;;1.40;99.90;;;;;;4989148;28;20054;-81
2023/01/17 10:26:01;;;;;;;11.13;3.30;;;1.50;99.90;;;;;;4982890;28;20100;-81
2023/01/17 10:28:50;;;;;;;14.40;3.50;;;1.40;99.90;;;;;;4975799;28;20700;-82
2023/01/17 10:31:30;;;;;;;10.77;3.30;;;1.60;99.90;;;;;;5000084;28;20058;-82
2023/01/17 10:34:03;;;;;;;9.47;3.30;;;1.70;99.90;;;;;;4985074;28;20043;-81
2023/01/17 10:36:39;;;;;;;12.35;3.78;;;1.70;99.90;;;;;;4982748;28;20089;-81
2023/01/17 10:39:16;;;;;;;11.03;3.17;;;1.80;99.90;;;;;;4982824;28;20403;-81
2023/01/17 10:41:45;;;;;;;10.80;3.43;;;1.90;99.90;;;;;;4986571;28;20052;-81
2023/01/17 10:44:34;;;;;;;11.03;3.20;;;1.80;99.90;;;;;;4982750;28;20042;-81
2023/01/17 10:47:18;;;;;;;8.83;3.10;;;1.80;99.90;;;;;;5000152;28;20513;-81
2023/01/17 10:49:53;;;;;;;11.38;3.20;;;1.90;99.90;;;;;;5006762;28;20052;-81
2023/01/17 10:53:03;;;;;;;9.77;3.20;;;2.00;99.90;;;;;;4981273;28;20052;-81
2023/01/17 10:55:47;;;;;;;10.60;3.67;;;2.20;99.90;;;;;;4979711;28;22420;-81
2023/01/17 10:58:13;;;;;;;12.17;3.37;;;2.30;99.90;;;;;;4998445;28;20394;-81
2023/01/17 11:00:48;;;;;;;12.00;3.60;;;3.40;99.90;;;;;;4982715;28;20046;-81
2023/01/17 11:03:16;;;;;;;12.27;3.20;;;2.60;99.90;;;;;;4981159;28;20071;-81
2023/01/17 11:05:42;;;;;;;14.37;3.40;;;2.70;99.90;;;;;;4995679;28;20048;-79
2023/01/17 11:08:14;;;;;;;13.17;3.30;;;2.90;99.90;;;;;;4981396;28;20042;-81
2023/01/17 11:10:47;;;;;;;11.23;3.20;;;2.90;99.90;;;;;;5004786;28;20049;-80
2023/01/17 11:13:21;;;;;;;13.40;2.80;;;3.00;99.90;;;;;;4980962;28;20061;-81
2023/01/17 11:15:50;;;;;;;8.93;3.20;;;3.00;99.90;;;;;;5001818;28;20037;-81
2023/01/17 11:18:26;;;;;;;11.17;2.87;;;3.00;99.90;;;;;;4974555;28;20565;-81
2023/01/17 11:20:52;;;;;;;9.93;3.10;;;3.10;99.90;;;;;;4980892;28;20394;-81
2023/01/17 11:23:28;;;;;;;9.57;2.90;;;3.10;99.90;;;;;;4982828;28;20041;-82
2023/01/17 11:26:03;;;;;;;10.13;2.83;;;3.20;99.90;;;;;;4993110;28;20050;-81
2023/01/17 11:28:31;;;;;;;8.27;2.53;;;3.10;99.90;;;;;;4994807;28;20091;-81
2023/01/17 11:31:15;;;;;;;9.70;3.00;;;3.20;99.90;;;;;;5008673;28;20034;-81
2023/01/17 11:33:54;;;;;;;11.80;2.95;;;3.20;99.90;;;;;;4996720;28;20099;-81
2023/01/17 11:36:28;;;;;;;9.83;2.63;;;3.20;99.90;;;;;;4982698;28;20042;-81
2023/01/17 11:39:04;;;;;;;12.07;3.23;;;3.30;99.90;;;;;;4983012;28;20057;-79
2023/01/17 11:41:35;;;;;;;14.20;2.70;;;3.40;99.90;;;;;;5000234;28;20085;-79
2023/01/17 11:44:02;;;;;;;11.50;2.73;;;3.30;99.90;;;;;;4979396;28;20513;-79
2023/01/17 11:46:28;;;;;;;7.33;2.40;;;3.40;99.90;;;;;;4982522;28;20053;-79
2023/01/17 11:49:00;;;;;;;8.27;2.40;;;3.40;99.90;;;;;;4999434;28;20121;-80
2023/01/17 11:51:40;;;;;;;9.87;2.93;;;3.60;99.90;;;;;;5001176;28;20050;-80
2023/01/17 11:54:22;;;;;;;9.90;2.70;;;3.60;99.90;;;;;;4987288;28;20054;-80
2023/01/17 11:56:49;;;;;;;12.80;2.70;;;3.70;99.90;;;;;;5001126;28;20088;-80
2023/01/17 11:59:25;;;;;;;12.10;3.03;;;3.70;99.90;;;;;;4978599;28;20074;-83
2023/01/17 12:01:54;;;;;;;8.97;2.73;;;3.70;99.90;;;;;;4973614;28;20049;-82
2023/01/17 12:04:34;;;;;;;9.70;2.90;;;3.80;99.90;;;;;;4980260;28;20046;-82
2023/01/17 12:07:14;;;;;;;9.73;2.70;;;3.80;99.90;;;;;;4995142;28;20124;-82
2023/01/17 12:10:04;;;;;;;9.83;2.50;;;3.90;99.90;;;;;;4995596;28;20420;-81
2023/01/17 12:16:46;;;;;;;16.43;4.17;;;5.40;99.90;;;;;;4992320;28;20054;-81
2023/01/17 12:19:41;;;;;;;8.93;2.63;;;3.80;99.90;;;;;;4939134;29;20134;-81
2023/01/17 12:22:35;;;;;;;7.23;2.50;;;3.80;99.90;;;;;;4972805;28;20136;-79
2023/01/17 12:25:19;;;;;;;;;;;3.60;99.90;;;;;;4978446;28;20042;-80
2023/01/17 12:28:11;;;;;;;7.43;2.40;;;3.60;99.90;;;;;;5000526;28;20020;-81
2023/01/17 12:31:19;;;;;;;9.87;2.70;;;3.50;99.90;;;;;;4951039;28;20461;-83
2023/01/17 12:34:16;;;;;;;8.83;2.40;;;4.00;99.90;;;;;;4980706;28;20061;-81
2023/01/17 12:36:51;;;;;;;9.70;2.60;;;3.70;99.90;;;;;;4982822;28;20056;-81
2023/01/17 12:39:20;;;;;;;8.90;2.50;;;3.80;99.90;;;;;;4997665;28;20050;-82
2023/01/17 12:42:04;;;;;;;9.57;3.47;;;3.80;99.90;;;;;;5001054;28;20033;-82
2023/01/17 12:44:58;;;;;;;8.03;2.30;;;3.90;99.90;;;;;;4998043;28;20061;-82
2023/01/17 12:47:24;;;;;;;11.63;2.83;;;4.00;99.90;;;;;;4996180;28;20080;-82
2023/01/17 12:50:04;;;;;;;9.97;3.07;;;4.00;99.90;;;;;;4985024;28;20037;-81
2023/01/17 12:52:51;;;;;;;7.80;2.00;;;4.10;99.90;;;;;;4997316;28;20073;-81
2023/01/17 12:55:35;;;;;;;8.63;2.07;;;4.20;99.90;;;;;;4979196;28;20046;-82
2023/01/17 12:58:11;;;;;;;7.10;1.90;;;4.20;99.90;;;;;;4998617;28;20038;-82
2023/01/17 13:00:38;;;;;;;8.50;2.10;;;4.10;99.90;;;;;;4980891;28;20074;-82
2023/01/17 13:03:23;;;;;;;14.93;3.53;;;4.20;99.90;;;;;;4984503;28;20042;-82
2023/01/17 13:05:51;;;;;;;8.13;2.67;;;4.30;99.90;;;;;;5005811;28;20443;-82
2023/01/17 13:08:33;;;;;;;8.70;2.73;;;4.30;99.90;;;;;;4999703;28;20406;-82
2023/01/17 13:11:09;;;;;;;8.97;2.40;;;4.40;99.90;;;;;;5005836;28;20081;-82
2023/01/17 13:13:35;;;;;;;8.67;2.17;;;4.30;99.90;;;;;;4984866;28;20050;-82
2023/01/17 13:16:25;;;;;;;8.83;2.20;;;4.40;99.90;;;;;;4986037;28;20049;-81
2023/01/17 13:18:51;;;;;;;10.63;2.13;;;4.50;99.90;;;;;;5004736;28;20046;-81
2023/01/17 13:21:34;;;;;;;10.10;2.67;;;4.50;99.90;;;;;;4982598;28;20093;-82
2023/01/17 13:24:02;;;;;;;12.80;3.47;;;4.50;99.90;;;;;;5007318;28;20500;-81
2023/01/17 13:26:27;;;;;;;9.00;2.37;;;4.40;99.90;;;;;;5002359;28;20045;-81
2023/01/17 13:29:11;;;;;;;10.70;2.43;;;4.40;99.90;;;;;;4994857;28;20087;-81
2023/01/17 13:32:04;;;;;;;11.13;2.38;;;4.40;99.90;;;;;;4984472;28;20103;-81
2023/01/17 13:34:42;;;;;;;6.43;2.10;;;4.30;99.90;;;;;;4983815;28;20042;-79
2023/01/17 13:37:36;;;;;;;10.53;2.33;;;4.30;99.90;;;;;;5002762;28;20446;-79
2023/01/17 13:40:54;;;;;;;9.80;2.20;;;4.30;99.90;;;;;;4983348;28;20046;-80
2023/01/17 13:43:32;;;;;;;8.87;2.10;;;4.40;99.90;;;;;;4936173;28;20061;-80
2023/01/17 13:46:01;;;;;;;9.07;2.10;;;4.40;99.90;;;;;;5004962;28;20042;-80
2023/01/17 13:48:33;;;;;;;8.73;2.37;;;4.40;99.90;;;;;;4984133;28;20125;-80
2023/01/17 13:51:09;;;;;;;9.57;2.50;;;4.40;99.90;;;;;;4985972;28;20053;-80
2023/01/17 13:53:37;;;;;;;7.57;2.37;;;4.40;99.90;;;;;;5001020;28;20041;-81
2023/01/17 13:56:26;;;;;;;7.70;2.27;;;4.40;99.90;;;;;;4984771;28;20046;-82
2023/01/17 13:58:53;;;;;;;8.97;2.13;;;4.40;99.90;;;;;;5003084;28;20108;-81
2023/01/17 14:01:21;;;;;;;8.33;2.30;;;4.40;99.90;;;;;;5008955;28;20064;-82
2023/01/17 14:03:50;;;;;;;8.37;2.00;;;4.40;99.90;;;;;;4984030;28;20551;-81
2023/01/17 14:06:29;;;;;;;7.97;2.03;;;4.30;99.90;;;;;;4987617;28;20088;-81
2023/01/17 14:09:09;;;;;;;9.40;2.10;;;4.30;99.90;;;;;;5002596;28;20054;-82
2023/01/17 14:11:48;;;;;;;7.77;2.20;;;4.20;99.90;;;;;;4981358;28;20502;-82
2023/01/17 14:14:42;;;;;;;8.00;2.73;;;4.20;99.90;;;;;;5001811;28;20069;-81
2023/01/17 14:17:26;;;;;;;8.70;2.47;;;4.10;99.90;;;;;;4988785;28;20529;-81
2023/01/17 14:20:04;;;;;;;;;;;4.10;99.90;;;;;;4985708;28;20057;-81
2023/01/17 14:22:34;;;;;;;9.33;3.23;;;3.90;99.90;;;;;;4983784;28;19932;-81
2023/01/17 14:25:16;;;;;;;9.73;2.90;;;3.90;99.90;;;;;;4984535;28;20092;-81
2023/01/17 14:27:42;;;;;;;12.60;2.70;;;4.30;99.90;;;;;;4981379;28;20252;-81
2023/01/17 14:30:34;;;;;;;8.47;2.37;;;3.80;99.90;;;;;;4982065;28;20502;-81
2023/01/17 14:33:07;;;;;;;9.00;2.53;;;3.70;99.90;;;;;;4998536;28;20073;-81
2023/01/17 14:35:36;;;;;;;9.82;3.10;;;3.60;99.90;;;;;;4985535;28;20129;-81
2023/01/17 14:38:04;;;;;;;13.80;3.47;;;3.60;99.90;;;;;;4998801;28;20105;-81
2023/01/17 14:40:36;;;;;;;8.77;2.00;;;3.50;99.90;;;;;;4982944;28;20041;-81
2023/01/17 14:43:06;;;;;;;10.30;2.80;;;3.40;99.90;;;;;;4999744;28;20042;-81
2023/01/17 14:45:35;;;;;;;9.70;2.70;;;3.40;99.90;;;;;;4999106;28;20037;-81
2023/01/17 14:48:04;;;;;;;9.47;2.57;;;3.30;99.90;;;;;;4984962;28;20038;-81
2023/01/17 14:50:41;;;;;;;9.87;2.70;;;3.30;99.90;;;;;;4983916;28;20042;-81